Time;durP1;ratioP1;P1;durP2;ratioP2;P2;SDS_P1;SDS_P2;PMS_P1;PMS_P2;Temp;Humidity;BMP_temperature;BMP_pressure;BME280_temperature;BME280_humidity;BME280_pressure;Samples;Min_cycle;Max_cycle;Signal;HPM_P1;HPM_P2
2022/07/16 00:03:30;;;;;;;3.38;1.70;;;21.20;82.90;;;;;;5067568;28;20226;-50
2022/07/16 00:06:00;;;;;;;2.70;1.85;;;21.10;82.90;;;;;;5050647;28;20313;-50
2022/07/16 00:08:27;;;;;;;3.03;1.90;;;21.10;83.10;;;;;;5028266;28;20195;-50
2022/07/16 00:10:59;;;;;;;2.88;2.33;;;21.00;82.90;;;;;;5028627;28;20255;-51
2022/07/16 00:13:27;;;;;;;5.90;1.77;;;21.00;83.10;;;;;;5028386;28;20223;-51
2022/07/16 00:15:55;;;;;;;4.47;1.98;;;20.90;82.90;;;;;;5028458;28;20211;-50
2022/07/16 00:21:10;;;;;;;3.17;2.17;;;20.80;83.00;;;;;;5029063;28;20205;-51
2022/07/16 00:23:40;;;;;;;2.75;2.08;;;20.70;82.90;;;;;;5030824;28;20231;-51
2022/07/16 00:26:12;;;;;;;2.30;1.65;;;20.70;82.90;;;;;;5052188;28;20294;-51
2022/07/16 00:28:39;;;;;;;2.95;1.70;;;20.60;83.10;;;;;;5035915;28;20299;-51
2022/07/16 00:31:07;;;;;;;3.10;2.13;;;20.60;83.00;;;;;;5032409;28;20255;-51
2022/07/16 00:33:34;;;;;;;3.85;1.95;;;20.50;83.00;;;;;;5030462;28;20200;-51
2022/07/16 00:36:02;;;;;;;5.57;2.20;;;20.50;83.10;;;;;;5033017;28;20196;-51
2022/07/16 00:38:29;;;;;;;2.33;1.90;;;20.40;83.10;;;;;;5013860;28;20296;-51
2022/07/16 00:40:56;;;;;;;2.67;1.83;;;20.40;83.00;;;;;;5032852;28;20201;-51
2022/07/16 00:43:24;;;;;;;2.72;2.38;;;20.40;83.20;;;;;;5032800;28;20319;-50
2022/07/16 00:45:51;;;;;;;3.92;2.13;;;20.30;83.20;;;;;;5042680;28;20215;-50
2022/07/16 00:48:18;;;;;;;2.60;2.00;;;20.30;83.40;;;;;;5031127;28;20288;-50
2022/07/16 00:50:46;;;;;;;4.28;2.03;;;20.20;83.30;;;;;;5032269;28;20401;-51
2022/07/16 00:53:14;;;;;;;3.92;2.20;;;20.20;83.50;;;;;;5031307;28;20324;-50
2022/07/16 00:55:44;;;;;;;3.85;2.20;;;20.10;83.40;;;;;;5030396;28;20676;-50
2022/07/16 00:58:13;;;;;;;3.38;2.20;;;20.10;83.70;;;;;;5034493;28;20401;-50
2022/07/16 01:00:43;;;;;;;3.95;2.40;;;20.00;83.50;;;;;;5052789;28;20262;-50
2022/07/16 01:03:15;;;;;;;3.80;2.25;;;20.00;83.50;;;;;;5044729;28;20224;-51
2022/07/16 01:05:45;;;;;;;3.63;2.13;;;20.00;83.70;;;;;;5031291;28;20424;-50
2022/07/16 01:08:13;;;;;;;2.80;2.20;;;20.20;84.30;;;;;;5031883;28;20475;-49
2022/07/16 01:10:40;;;;;;;3.25;2.20;;;20.40;84.40;;;;;;5037873;28;20262;-50
2022/07/16 01:13:09;;;;;;;3.40;1.85;;;20.30;84.40;;;;;;5034168;28;20211;-50
2022/07/16 01:15:39;;;;;;;3.08;2.03;;;20.20;84.40;;;;;;5032503;28;20398;-51
2022/07/16 01:18:06;;;;;;;2.38;2.17;;;20.40;84.70;;;;;;5030363;28;20208;-51
2022/07/16 01:20:33;;;;;;;5.65;2.03;;;20.30;84.60;;;;;;5031508;28;20587;-51
2022/07/16 01:23:01;;;;;;;5.63;2.53;;;20.20;84.70;;;;;;5031948;28;20216;-45
2022/07/16 01:25:30;;;;;;;4.18;2.05;;;20.10;84.60;;;;;;5032353;28;20209;-45
2022/07/16 01:27:58;;;;;;;3.53;2.00;;;20.00;84.50;;;;;;5032287;28;20698;-45
2022/07/16 01:30:25;;;;;;;3.65;2.08;;;20.00;84.60;;;;;;5038599;28;20694;-45
2022/07/16 01:32:52;;;;;;;5.82;2.60;;;19.90;84.40;;;;;;5038978;28;20307;-46
2022/07/16 01:35:20;;;;;;;3.33;2.50;;;19.90;84.60;;;;;;5030489;28;20208;-45
2022/07/16 01:37:49;;;;;;;2.78;2.22;;;19.80;84.50;;;;;;5030887;28;20574;-46
2022/07/16 01:40:19;;;;;;;5.13;2.42;;;19.80;84.50;;;;;;5049880;28;20228;-45
2022/07/16 01:42:49;;;;;;;2.70;2.25;;;19.70;84.50;;;;;;5050576;28;20232;-45
2022/07/16 01:45:19;;;;;;;3.60;2.38;;;19.60;84.40;;;;;;5050858;28;20262;-45
2022/07/16 01:47:48;;;;;;;6.10;2.50;;;19.60;84.80;;;;;;5048794;28;20286;-44
2022/07/16 01:50:16;;;;;;;3.50;2.30;;;19.50;84.80;;;;;;5050128;28;20277;-45
2022/07/16 01:52:45;;;;;;;5.05;2.47;;;19.50;84.80;;;;;;5043460;28;20219;-45
2022/07/16 01:55:13;;;;;;;6.55;2.65;;;19.50;84.90;;;;;;5029334;28;20246;-45
2022/07/16 01:57:42;;;;;;;2.95;2.13;;;19.40;84.90;;;;;;5030520;28;20324;-45
2022/07/16 02:00:12;;;;;;;3.58;2.33;;;19.40;85.00;;;;;;5044601;28;20192;-46
2022/07/16 02:02:40;;;;;;;4.80;2.33;;;19.30;84.90;;;;;;5070307;28;20298;-46
2022/07/16 02:05:09;;;;;;;3.25;2.40;;;19.30;85.00;;;;;;5070425;28;20207;-45
2022/07/16 02:07:38;;;;;;;3.55;2.30;;;19.30;85.10;;;;;;5041238;28;20211;-45
2022/07/16 02:10:06;;;;;;;4.47;2.20;;;19.20;84.90;;;;;;5037717;28;20228;-46
2022/07/16 02:12:33;;;;;;;3.20;2.42;;;19.20;85.00;;;;;;5030233;28;20790;-45
2022/07/16 02:15:03;;;;;;;3.75;2.30;;;19.20;85.10;;;;;;5030237;28;20205;-46
2022/07/16 02:17:31;;;;;;;4.20;2.35;;;19.20;85.10;;;;;;5030264;28;20384;-46
2022/07/16 02:19:58;;;;;;;2.95;1.98;;;19.10;85.00;;;;;;5029797;28;20263;-45
2022/07/16 02:22:28;;;;;;;3.75;2.85;;;19.20;85.10;;;;;;5030270;28;20236;-46
2022/07/16 02:24:57;;;;;;;4.32;2.13;;;19.10;85.20;;;;;;5047514;28;20207;-46
2022/07/16 02:27:27;;;;;;;2.55;2.25;;;19.10;85.20;;;;;;5047865;28;20592;-44
2022/07/16 02:29:55;;;;;;;3.70;2.42;;;19.00;85.20;;;;;;5049988;28;20199;-45
2022/07/16 02:32:25;;;;;;;2.75;1.85;;;19.00;85.20;;;;;;5049276;28;20569;-45
2022/07/16 02:34:55;;;;;;;3.03;2.20;;;19.00;85.30;;;;;;5049650;28;20208;-44
2022/07/16 02:37:23;;;;;;;3.05;2.40;;;19.00;85.30;;;;;;5049571;28;20211;-46
2022/07/16 02:39:50;;;;;;;3.38;2.55;;;19.00;85.30;;;;;;5045351;28;20204;-46
2022/07/16 02:42:20;;;;;;;4.00;2.45;;;18.90;85.20;;;;;;5030035;28;20240;-44
2022/07/16 02:44:50;;;;;;;2.72;2.42;;;18.90;85.30;;;;;;5045355;28;20297;-45
2022/07/16 02:47:21;;;;;;;3.70;2.63;;;18.90;85.30;;;;;;5049549;28;20200;-46
2022/07/16 02:49:51;;;;;;;2.92;2.10;;;18.90;85.30;;;;;;5049535;28;20653;-45
2022/07/16 02:52:21;;;;;;;3.83;2.80;;;18.90;85.50;;;;;;5049646;28;20568;-46
2022/07/16 02:54:50;;;;;;;5.05;2.10;;;18.90;85.20;;;;;;5048035;28;20327;-45
2022/07/16 02:57:17;;;;;;;3.78;2.30;;;18.80;85.40;;;;;;5048604;28;20597;-45
2022/07/16 02:59:45;;;;;;;2.83;2.10;;;18.80;85.50;;;;;;5052055;28;20301;-46
2022/07/16 03:02:14;;;;;;;3.35;2.45;;;18.80;85.50;;;;;;5038597;28;20204;-45
2022/07/16 03:04:42;;;;;;;4.38;2.60;;;18.80;85.80;;;;;;5032004;28;20287;-46
2022/07/16 03:07:11;;;;;;;2.63;2.35;;;18.70;85.60;;;;;;5033131;28;20250;-45
2022/07/16 03:09:39;;;;;;;3.72;2.28;;;18.70;85.50;;;;;;5029411;28;20208;-45
2022/07/16 03:12:08;;;;;;;4.07;2.20;;;18.70;85.80;;;;;;5028974;28;20201;-47
2022/07/16 03:14:38;;;;;;;3.65;2.25;;;18.60;85.70;;;;;;5029569;28;20680;-45
2022/07/16 03:17:05;;;;;;;2.90;2.53;;;18.60;85.90;;;;;;5029965;28;20220;-45
2022/07/16 03:19:32;;;;;;;4.38;2.53;;;18.60;85.90;;;;;;5048914;28;20570;-46
2022/07/16 03:22:00;;;;;;;5.05;2.42;;;18.50;85.60;;;;;;5048830;28;20300;-45
2022/07/16 03:24:29;;;;;;;3.80;2.28;;;18.50;85.70;;;;;;5048137;28;20216;-45
2022/07/16 03:26:57;;;;;;;3.40;2.28;;;18.50;85.80;;;;;;5048968;28;20250;-45
2022/07/16 03:29:31;;;;;;;4.55;2.70;;;18.50;86.00;;;;;;5048855;28;20548;-40
2022/07/16 03:31:58;;;;;;;2.72;2.42;;;18.50;86.00;;;;;;5047749;28;20196;-45
2022/07/16 03:34:25;;;;;;;3.65;2.53;;;18.40;85.70;;;;;;5044049;28;20219;-45
2022/07/16 03:36:52;;;;;;;5.20;2.40;;;18.40;85.90;;;;;;5028857;28;20261;-46
2022/07/16 03:39:20;;;;;;;13.20;3.15;;;18.40;86.10;;;;;;5037504;28;20208;-45
2022/07/16 03:41:49;;;;;;;3.70;2.63;;;18.40;86.00;;;;;;5048572;28;20212;-46
2022/07/16 03:44:17;;;;;;;3.22;2.47;;;18.40;86.20;;;;;;5048548;28;20323;-45
2022/07/16 03:46:44;;;;;;;3.35;2.60;;;18.30;86.00;;;;;;5048208;28;20204;-46
2022/07/16 03:49:13;;;;;;;5.30;2.25;;;18.30;86.00;;;;;;5046110;28;20235;-46
2022/07/16 03:51:41;;;;;;;3.85;2.25;;;18.30;86.10;;;;;;5041279;28;20334;-45
2022/07/16 03:54:08;;;;;;;3.08;2.00;;;18.30;86.20;;;;;;5028459;28;20201;-45
2022/07/16 03:56:35;;;;;;;4.82;2.88;;;18.30;86.30;;;;;;5026992;28;20297;-47
2022/07/16 03:59:03;;;;;;;4.78;2.22;;;18.30;86.40;;;;;;5026649;28;20237;-45
2022/07/16 04:01:33;;;;;;;4.00;2.33;;;18.30;86.40;;;;;;5062127;28;20248;-46
2022/07/16 04:04:00;;;;;;;2.95;2.20;;;18.20;86.30;;;;;;5068100;28;20289;-46
2022/07/16 04:06:32;;;;;;;4.35;2.40;;;18.20;86.40;;;;;;5038919;28;20212;-44
2022/07/16 04:09:02;;;;;;;3.42;2.17;;;18.20;86.60;;;;;;5028137;28;20243;-46
2022/07/16 04:11:29;;;;;;;4.82;2.42;;;18.20;86.00;;;;;;5022824;28;20576;-45
2022/07/16 04:13:59;;;;;;;4.82;2.42;;;18.10;86.50;;;;;;5046837;28;20232;-45
2022/07/16 04:16:28;;;;;;;3.85;2.15;;;18.10;86.40;;;;;;5046520;28;20207;-46
2022/07/16 04:18:55;;;;;;;2.15;1.83;;;18.10;86.30;;;;;;5048246;28;20254;-46
2022/07/16 04:21:23;;;;;;;3.88;2.50;;;18.10;86.20;;;;;;5048069;28;20292;-47
2022/07/16 04:23:53;;;;;;;3.22;2.00;;;18.10;86.30;;;;;;5030151;28;20228;-45
2022/07/16 04:26:20;;;;;;;3.20;2.28;;;18.10;86.20;;;;;;5039974;28;20216;-46
2022/07/16 04:28:48;;;;;;;3.72;2.28;;;18.10;86.30;;;;;;5047040;28;20279;-45
2022/07/16 04:31:16;;;;;;;2.53;1.83;;;18.10;86.20;;;;;;5048249;28;20207;-45
2022/07/16 04:33:45;;;;;;;3.85;2.17;;;18.10;86.30;;;;;;5047675;28;20204;-45
2022/07/16 04:36:15;;;;;;;4.68;2.40;;;18.10;86.30;;;;;;5048085;28;20228;-45
2022/07/16 04:38:44;;;;;;;3.55;2.22;;;18.10;86.50;;;;;;5047557;28;20200;-44
2022/07/16 04:41:14;;;;;;;2.35;1.88;;;18.10;86.30;;;;;;5048372;28;20208;-45
2022/07/16 04:43:41;;;;;;;4.45;2.30;;;18.10;86.40;;;;;;5032723;28;20712;-45
2022/07/16 04:46:09;;;;;;;2.80;2.10;;;18.10;86.50;;;;;;5027975;28;20240;-44
2022/07/16 04:48:38;;;;;;;3.08;2.30;;;18.20;86.60;;;;;;5027569;28;20201;-45
2022/07/16 04:51:08;;;;;;;2.42;1.88;;;18.20;86.50;;;;;;5026634;28;20200;-45
2022/07/16 04:53:36;;;;;;;2.95;1.98;;;18.20;86.60;;;;;;5026138;28;20204;-44
2022/07/16 04:56:09;;;;;;;2.85;2.10;;;18.20;86.60;;;;;;5027430;28;20221;-45
2022/07/16 04:58:36;;;;;;;3.60;2.35;;;18.30;86.80;;;;;;5027556;28;20249;-45
2022/07/16 05:01:06;;;;;;;4.07;1.80;;;18.30;86.80;;;;;;5059793;28;20203;-45
2022/07/16 05:03:33;;;;;;;2.28;2.00;;;18.30;86.90;;;;;;5065884;28;20227;-45
2022/07/16 05:06:05;;;;;;;3.22;2.30;;;18.30;86.90;;;;;;5068169;28;20666;-45
2022/07/16 05:08:32;;;;;;;2.67;2.30;;;18.30;86.90;;;;;;5035366;28;20201;-45
2022/07/16 05:11:10;;;;;;;3.33;2.25;;;18.40;87.00;;;;;;5015187;28;20228;-45
2022/07/16 05:13:39;;;;;;;2.30;2.10;;;18.40;87.00;;;;;;5032133;28;20546;-45
2022/07/16 05:16:09;;;;;;;3.92;2.20;;;18.50;87.50;;;;;;5032925;28;20247;-45
2022/07/16 05:18:37;;;;;;;3.22;2.05;;;18.50;87.20;;;;;;5046363;28;20204;-45
2022/07/16 05:21:04;;;;;;;4.07;2.00;;;18.50;87.20;;;;;;5041103;28;20221;-45
2022/07/16 05:23:31;;;;;;;5.03;2.13;;;18.60;87.40;;;;;;5030508;28;20227;-45
2022/07/16 05:25:58;;;;;;;2.20;1.80;;;18.70;87.50;;;;;;5031477;28;20197;-45
2022/07/16 05:28:26;;;;;;;2.90;1.95;;;18.70;87.50;;;;;;5031052;28;20193;-45
2022/07/16 05:30:55;;;;;;;4.63;1.90;;;18.80;87.60;;;;;;5039244;28;20216;-45
2022/07/16 05:33:23;;;;;;;3.80;2.00;;;18.80;87.70;;;;;;5046279;28;20209;-45
2022/07/16 05:35:51;;;;;;;4.25;2.50;;;18.90;87.80;;;;;;5030762;28;20201;-46
2022/07/16 05:38:18;;;;;;;2.10;1.88;;;18.90;87.70;;;;;;5030339;28;20311;-45
2022/07/16 05:40:48;;;;;;;5.05;2.17;;;19.00;87.90;;;;;;5030870;28;20320;-47
2022/07/16 05:43:15;;;;;;;4.45;2.10;;;19.00;87.90;;;;;;5030782;28;20254;-47
2022/07/16 05:45:42;;;;;;;3.65;2.17;;;19.10;88.10;;;;;;5030889;28;20200;-46
2022/07/16 05:48:10;;;;;;;2.47;1.80;;;19.20;88.20;;;;;;5030805;28;20299;-46
2022/07/16 05:50:39;;;;;;;5.22;2.10;;;19.30;88.30;;;;;;5036735;28;20674;-47
2022/07/16 05:53:07;;;;;;;4.93;2.17;;;19.40;88.50;;;;;;5050076;28;20265;-46
2022/07/16 05:55:36;;;;;;;3.25;2.40;;;19.40;88.50;;;;;;5050496;28;20299;-47
2022/07/16 05:58:05;;;;;;;4.43;2.45;;;19.50;88.60;;;;;;5048806;28;20232;-47
2022/07/16 06:00:38;;;;;;;3.95;3.00;;;19.60;88.70;;;;;;5061089;28;20199;-47
2022/07/16 06:03:05;;;;;;;5.70;2.75;;;19.70;89.00;;;;;;5068132;28;20290;-47
2022/07/16 06:05:35;;;;;;;3.45;2.42;;;19.70;88.80;;;;;;5038020;28;20260;-48
2022/07/16 06:08:03;;;;;;;4.97;2.90;;;19.80;88.90;;;;;;5039414;28;20211;-47
2022/07/16 06:10:30;;;;;;;4.25;2.85;;;19.90;89.20;;;;;;5040347;28;20197;-49
2022/07/16 06:12:59;;;;;;;3.40;2.88;;;20.00;89.30;;;;;;5030111;28;20215;-49
2022/07/16 06:15:29;;;;;;;5.68;3.45;;;20.10;89.30;;;;;;5030012;28;20262;-48
2022/07/16 06:17:56;;;;;;;4.53;3.08;;;20.20;89.70;;;;;;5028612;28;20325;-48
2022/07/16 06:20:26;;;;;;;4.60;2.92;;;20.30;89.60;;;;;;5035750;28;20258;-48
2022/07/16 06:22:56;;;;;;;4.90;2.97;;;20.40;89.60;;;;;;5048440;28;20243;-48
2022/07/16 06:25:24;;;;;;;4.72;3.05;;;20.40;89.70;;;;;;5035965;28;20240;-49
2022/07/16 06:27:54;;;;;;;7.03;2.47;;;20.50;89.80;;;;;;5038399;28;20227;-48
2022/07/16 06:30:21;;;;;;;3.90;3.38;;;20.60;90.00;;;;;;5030220;28;20251;-48
2022/07/16 06:32:48;;;;;;;7.18;3.33;;;20.70;90.50;;;;;;5029392;28;20232;-49
2022/07/16 06:35:20;;;;;;;4.55;2.63;;;20.70;90.20;;;;;;5028957;28;20690;-49
2022/07/16 06:37:47;;;;;;;5.10;3.10;;;20.70;90.20;;;;;;5029677;28;20574;-52
2022/07/16 06:40:17;;;;;;;3.83;2.90;;;20.80;90.30;;;;;;5042187;28;20323;-49
2022/07/16 06:42:44;;;;;;;3.97;2.70;;;20.80;90.30;;;;;;5047765;28;20820;-48
2022/07/16 06:45:12;;;;;;;3.83;2.60;;;20.90;90.30;;;;;;5049635;28;20236;-48
2022/07/16 06:47:39;;;;;;;2.92;2.22;;;20.90;90.40;;;;;;5049482;28;20629;-48
2022/07/16 06:50:07;;;;;;;4.63;2.67;;;20.90;90.30;;;;;;5049438;28;20239;-48
2022/07/16 06:52:36;;;;;;;4.82;2.80;;;21.00;90.50;;;;;;5049296;28;20198;-48
2022/07/16 06:55:07;;;;;;;2.88;2.65;;;21.00;90.60;;;;;;5047816;28;20223;-48
2022/07/16 06:57:35;;;;;;;3.03;2.70;;;21.00;90.70;;;;;;5049029;28;20222;-45
2022/07/16 07:00:09;;;;;;;5.80;2.92;;;21.10;90.60;;;;;;5041826;28;20222;-46
2022/07/16 07:02:39;;;;;;;4.10;2.63;;;21.10;90.90;;;;;;5067506;28;20670;-45
2022/07/16 07:05:09;;;;;;;6.20;3.05;;;21.10;90.90;;;;;;5067889;28;20751;-46
2022/07/16 07:07:36;;;;;;;4.10;2.17;;;21.20;90.90;;;;;;5069096;28;20246;-46
2022/07/16 07:10:06;;;;;;;5.30;2.63;;;21.20;90.80;;;;;;5047490;28;20306;-46
2022/07/16 07:12:34;;;;;;;8.32;2.80;;;21.20;91.00;;;;;;5035915;28;20661;-47
2022/07/16 07:15:03;;;;;;;4.32;2.50;;;21.30;91.00;;;;;;5047612;28;20243;-44
2022/07/16 07:17:32;;;;;;;4.15;2.40;;;21.30;91.20;;;;;;5028563;28;20337;-45
2022/07/16 07:19:59;;;;;;;4.40;2.63;;;21.40;91.10;;;;;;5028588;28;20197;-46
2022/07/16 07:22:29;;;;;;;6.20;2.25;;;21.40;91.10;;;;;;5028966;28;20327;-45
2022/07/16 07:24:56;;;;;;;2.00;1.80;;;21.40;91.20;;;;;;5028573;28;20232;-45
2022/07/16 07:27:23;;;;;;;3.28;2.10;;;21.40;91.10;;;;;;5029062;28;20193;-48
2022/07/16 07:29:53;;;;;;;3.85;2.72;;;21.50;91.10;;;;;;5036285;28;20256;-48
2022/07/16 07:32:20;;;;;;;3.33;2.40;;;21.50;91.40;;;;;;5044241;28;20216;-49
2022/07/16 07:34:48;;;;;;;4.60;2.50;;;21.50;91.20;;;;;;5027705;28;20224;-49
2022/07/16 07:37:17;;;;;;;3.05;1.92;;;21.50;91.20;;;;;;5027493;28;20291;-51
2022/07/16 07:39:44;;;;;;;5.13;2.40;;;21.50;91.30;;;;;;5039956;28;20212;-50
2022/07/16 07:42:12;;;;;;;2.40;1.48;;;21.60;91.40;;;;;;5028669;28;20270;-50
2022/07/16 07:44:39;;;;;;;3.15;2.08;;;21.60;91.40;;;;;;5028502;28;20703;-47
2022/07/16 07:47:07;;;;;;;6.38;2.00;;;21.70;91.30;;;;;;5038879;28;20652;-46
2022/07/16 07:49:36;;;;;;;2.53;1.60;;;21.70;91.40;;;;;;5042400;28;20698;-48
2022/07/16 07:52:10;;;;;;;1.48;1.38;;;21.80;91.50;;;;;;5028365;28;20196;-45
2022/07/16 07:54:37;;;;;;;2.42;1.52;;;21.90;91.50;;;;;;5028236;28;20205;-44
2022/07/16 07:57:04;;;;;;;3.10;1.50;;;21.90;91.50;;;;;;5026971;28;20209;-45
2022/07/16 07:59:34;;;;;;;2.60;1.55;;;22.00;91.80;;;;;;5030946;28;20255;-48
2022/07/16 08:02:05;;;;;;;2.55;1.40;;;22.10;91.80;;;;;;5066999;28;20564;-49
2022/07/16 08:04:33;;;;;;;4.60;1.55;;;22.10;91.70;;;;;;5037582;28;20229;-49
2022/07/16 08:07:09;;;;;;;2.22;1.20;;;22.20;91.70;;;;;;5038168;28;20204;-49
2022/07/16 08:09:36;;;;;;;1.95;1.30;;;22.20;91.80;;;;;;5043872;28;20275;-52
2022/07/16 08:12:03;;;;;;;2.05;1.30;;;22.20;91.60;;;;;;5028281;28;20197;-50
2022/07/16 08:14:31;;;;;;;1.55;1.30;;;22.20;91.60;;;;;;5027221;28;20251;-50
2022/07/16 08:16:59;;;;;;;2.25;1.00;;;22.20;91.50;;;;;;5028005;28;20196;-49
2022/07/16 08:19:26;;;;;;;1.85;1.30;;;22.30;91.60;;;;;;5028205;28;20216;-49
2022/07/16 08:21:54;;;;;;;2.00;1.27;;;22.30;91.60;;;;;;5044468;28;20303;-49
2022/07/16 08:27:07;;;;;;;2.45;1.30;;;22.30;91.50;;;;;;5028079;28;20197;-49
2022/07/16 08:29:34;;;;;;;1.60;1.20;;;22.30;91.50;;;;;;5026566;28;20255;-49
2022/07/16 08:32:02;;;;;;;2.17;1.15;;;22.30;91.50;;;;;;5026384;28;20774;-49
2022/07/16 08:34:32;;;;;;;3.70;1.10;;;22.30;91.50;;;;;;5027754;28;20229;-49
2022/07/16 08:36:59;;;;;;;2.92;1.20;;;22.40;91.50;;;;;;5028085;28;20778;-48
2022/07/16 08:39:31;;;;;;;1.55;1.00;;;22.40;91.80;;;;;;5028177;28;20366;-49
2022/07/16 08:41:59;;;;;;;0.80;0.80;;;22.40;91.50;;;;;;5030609;28;20293;-49
2022/07/16 08:44:29;;;;;;;2.13;0.90;;;22.50;91.50;;;;;;5030359;28;20240;-49
2022/07/16 08:46:57;;;;;;;1.45;0.85;;;22.50;91.50;;;;;;5035074;28;20213;-49
2022/07/16 08:49:29;;;;;;;1.48;1.10;;;22.50;91.50;;;;;;5051654;28;20306;-48
2022/07/16 08:52:02;;;;;;;2.50;0.90;;;22.60;91.60;;;;;;5034353;28;20189;-51
2022/07/16 08:54:29;;;;;;;1.90;1.08;;;22.60;91.70;;;;;;5050520;28;20220;-41
2022/07/16 08:56:59;;;;;;;0.80;0.70;;;22.70;91.80;;;;;;5050680;28;20208;-39
2022/07/16 08:59:27;;;;;;;2.08;0.80;;;22.70;91.70;;;;;;5032721;28;20794;-40
2022/07/16 09:01:57;;;;;;;2.58;1.10;;;22.60;91.50;;;;;;5071174;28;20337;-41
2022/07/16 09:04:27;;;;;;;2.65;1.00;;;22.60;91.50;;;;;;5071239;28;20222;-40
2022/07/16 09:06:56;;;;;;;2.05;0.80;;;22.50;91.50;;;;;;5071358;28;20199;-40
2022/07/16 09:09:24;;;;;;;1.50;0.80;;;22.30;91.40;;;;;;5055706;28;20300;-40
2022/07/16 09:11:51;;;;;;;1.13;0.90;;;22.30;91.60;;;;;;5040175;28;20771;-40
2022/07/16 09:14:19;;;;;;;3.45;1.10;;;22.20;91.60;;;;;;5047652;28;20565;-40
2022/07/16 09:16:53;;;;;;;1.52;0.93;;;22.20;91.70;;;;;;5029110;28;20211;-40
2022/07/16 09:19:23;;;;;;;1.13;0.93;;;22.20;91.60;;;;;;5031116;28;20213;-40
2022/07/16 09:22:13;;;;;;;1.80;1.00;;;22.20;91.70;;;;;;5031094;28;20683;-40
2022/07/16 09:24:43;;;;;;;1.40;0.90;;;22.20;91.60;;;;;;5029595;28;20300;-40
2022/07/16 09:27:21;;;;;;;1.85;1.00;;;22.20;91.70;;;;;;5030616;28;20221;-40
2022/07/16 09:29:58;;;;;;;1.13;0.70;;;22.20;91.60;;;;;;5031573;28;20208;-40
2022/07/16 09:32:34;;;;;;;0.70;0.70;;;22.30;91.70;;;;;;5043480;28;20216;-39
2022/07/16 09:35:13;;;;;;;2.00;1.08;;;22.30;91.70;;;;;;5050586;28;20426;-39
2022/07/16 09:37:52;;;;;;;1.17;0.82;;;22.40;91.80;;;;;;5041993;28;20248;-39
2022/07/16 09:40:31;;;;;;;3.72;1.17;;;22.40;91.70;;;;;;5031243;28;20223;-39
2022/07/16 09:43:00;;;;;;;2.80;0.90;;;22.50;91.80;;;;;;5029170;28;20239;-39
2022/07/16 09:45:27;;;;;;;2.50;0.90;;;22.50;91.70;;;;;;5029845;28;20300;-39
2022/07/16 09:47:58;;;;;;;1.67;0.70;;;22.60;91.70;;;;;;5030234;28;20200;-39
2022/07/16 09:50:36;;;;;;;0.70;0.70;;;22.60;91.70;;;;;;5050633;28;20220;-39
2022/07/16 09:53:14;;;;;;;2.10;0.82;;;22.60;91.70;;;;;;5050466;28;20242;-39
2022/07/16 09:56:01;;;;;;;1.75;0.73;;;22.60;91.60;;;;;;5048674;28;20193;-39
2022/07/16 09:58:29;;;;;;;0.68;0.63;;;22.70;91.70;;;;;;5041029;28;20237;-41
2022/07/16 10:00:58;;;;;;;0.98;0.90;;;22.70;91.50;;;;;;5056626;28;20210;-39
2022/07/16 10:03:26;;;;;;;2.00;0.70;;;22.70;91.30;;;;;;5040162;28;20209;-39
2022/07/16 10:05:54;;;;;;;1.52;0.80;;;22.70;91.00;;;;;;5038613;28;20712;-39
2022/07/16 10:08:22;;;;;;;0.70;0.55;;;22.70;90.90;;;;;;5048317;28;20311;-39
2022/07/16 10:10:52;;;;;;;0.60;0.60;;;22.60;90.60;;;;;;5045405;28;20236;-41
2022/07/16 10:13:25;;;;;;;1.80;0.75;;;22.60;90.80;;;;;;5030393;28;20284;-41
2022/07/16 10:15:54;;;;;;;0.77;0.73;;;22.70;90.90;;;;;;5030426;28;20731;-41
2022/07/16 10:18:34;;;;;;;0.75;0.73;;;22.70;90.80;;;;;;5029553;28;20208;-41
2022/07/16 10:21:12;;;;;;;1.70;0.68;;;22.70;90.80;;;;;;5029366;28;20229;-39
2022/07/16 10:23:44;;;;;;;1.20;0.82;;;22.70;90.80;;;;;;5043644;28;20583;-39
2022/07/16 10:26:20;;;;;;;1.65;0.80;;;22.80;90.80;;;;;;5049880;28;20338;-48
2022/07/16 10:28:54;;;;;;;0.80;0.80;;;22.80;90.70;;;;;;5049912;28;20578;-48
2022/07/16 10:31:41;;;;;;;0.60;0.60;;;22.80;90.60;;;;;;5049610;28;20215;-49
2022/07/16 10:34:14;;;;;;;0.65;0.65;;;22.90;90.50;;;;;;5049610;28;20257;-48
2022/07/16 10:36:50;;;;;;;0.77;0.52;;;22.90;90.50;;;;;;5041146;28;20304;-48
2022/07/16 10:39:22;;;;;;;1.48;0.57;;;22.90;90.50;;;;;;5048150;28;20255;-47
2022/07/16 10:41:49;;;;;;;1.10;0.60;;;22.90;90.70;;;;;;5049671;28;20246;-48
2022/07/16 10:44:18;;;;;;;0.60;0.60;;;22.90;90.20;;;;;;5047978;28;20200;-40
2022/07/16 10:46:54;;;;;;;2.50;0.80;;;23.00;90.30;;;;;;5048838;28;20258;-40
2022/07/16 10:49:26;;;;;;;1.00;0.60;;;23.00;90.00;;;;;;5047707;28;20262;-40
2022/07/16 10:52:14;;;;;;;0.90;0.70;;;23.00;89.30;;;;;;5049336;28;20220;-40
2022/07/16 10:55:01;;;;;;;0.82;0.65;;;23.00;89.60;;;;;;5047973;28;20315;-40
2022/07/16 10:57:37;;;;;;;2.58;0.77;;;23.00;89.00;;;;;;5036109;28;20205;-39
2022/07/16 11:00:07;;;;;;;1.08;0.60;;;23.00;89.80;;;;;;5041279;28;20263;-40
2022/07/16 11:02:39;;;;;;;1.50;0.73;;;23.10;90.10;;;;;;5069064;28;20306;-40
2022/07/16 11:05:29;;;;;;;1.02;0.70;;;23.10;90.00;;;;;;5055456;28;20535;-38
2022/07/16 11:08:07;;;;;;;3.80;0.93;;;23.20;89.50;;;;;;5036751;28;20260;-40
2022/07/16 11:10:36;;;;;;;0.63;0.60;;;23.20;89.30;;;;;;5036805;28;20204;-40
2022/07/16 11:13:11;;;;;;;0.85;0.75;;;23.30;89.90;;;;;;5030484;28;20686;-40
2022/07/16 11:15:39;;;;;;;1.50;0.90;;;23.30;90.00;;;;;;5049242;28;20234;-41
2022/07/16 11:18:15;;;;;;;1.17;0.80;;;23.40;89.30;;;;;;5048271;28;20212;-39
2022/07/16 11:20:44;;;;;;;1.02;0.70;;;23.40;88.60;;;;;;5047761;28;20245;-40
2022/07/16 11:23:17;;;;;;;0.85;0.63;;;23.50;89.20;;;;;;5047152;28;20507;-39
2022/07/16 11:25:55;;;;;;;0.80;0.80;;;23.50;89.30;;;;;;5047575;28;20231;-40
2022/07/16 11:28:23;;;;;;;0.70;0.70;;;23.50;88.30;;;;;;5047733;28;20342;-41
2022/07/16 11:31:08;;;;;;;1.60;0.98;;;23.50;88.30;;;;;;5041116;28;20580;-42
2022/07/16 11:33:48;;;;;;;0.88;0.70;;;23.60;89.30;;;;;;5027405;28;20212;-39
2022/07/16 11:36:19;;;;;;;3.00;1.00;;;23.50;89.00;;;;;;5028361;28;20207;-41
2022/07/16 11:38:50;;;;;;;1.45;0.80;;;23.60;88.50;;;;;;5026783;28;20216;-39
2022/07/16 11:41:17;;;;;;;0.82;0.60;;;23.70;88.70;;;;;;5027218;28;20201;-40
2022/07/16 11:43:45;;;;;;;1.67;0.60;;;23.70;88.30;;;;;;5027231;28;20212;-40
2022/07/16 11:46:27;;;;;;;1.88;0.98;;;23.70;88.80;;;;;;5028365;28;20225;-40
2022/07/16 11:48:57;;;;;;;1.58;0.82;;;23.80;87.80;;;;;;5027357;28;20233;-49
2022/07/16 11:51:28;;;;;;;0.82;0.55;;;23.70;87.80;;;;;;5028576;28;20201;-49
2022/07/16 11:53:55;;;;;;;4.93;0.90;;;23.80;87.40;;;;;;5026465;28;20224;-48
2022/07/16 11:56:35;;;;;;;1.15;0.80;;;23.80;88.10;;;;;;5028168;28;20308;-48
2022/07/16 11:59:23;;;;;;;0.85;0.77;;;23.90;88.30;;;;;;5027983;28;20236;-50
2022/07/16 12:02:13;;;;;;;1.73;0.90;;;23.90;87.70;;;;;;5028255;28;20217;-49
2022/07/16 12:04:49;;;;;;;1.30;1.00;;;23.90;88.70;;;;;;5034405;28;20413;-49
2022/07/16 12:07:24;;;;;;;1.33;0.60;;;24.00;87.70;;;;;;5046719;28;20803;-49
2022/07/16 12:09:54;;;;;;;3.83;0.90;;;24.00;88.30;;;;;;5042649;28;20672;-49
2022/07/16 12:12:29;;;;;;;1.45;1.13;;;24.10;88.60;;;;;;5031949;28;20628;-49
2022/07/16 12:15:02;;;;;;;0.73;0.73;;;24.20;87.40;;;;;;5039036;28;20251;-49
2022/07/16 12:17:46;;;;;;;2.65;0.75;;;24.20;88.20;;;;;;5047293;28;20257;-49
2022/07/16 12:20:17;;;;;;;0.98;0.98;;;24.30;87.80;;;;;;5028435;28;20342;-49
2022/07/16 12:23:10;;;;;;;1.85;0.95;;;24.30;87.80;;;;;;5028449;28;20213;-50
2022/07/16 12:25:45;;;;;;;1.10;0.85;;;24.30;87.10;;;;;;5027028;28;20225;-51
2022/07/16 12:28:18;;;;;;;2.33;0.98;;;24.40;87.90;;;;;;5028502;28;20192;-40
2022/07/16 12:31:11;;;;;;;2.38;1.02;;;24.40;86.80;;;;;;5028245;28;20779;-41
2022/07/16 12:33:39;;;;;;;1.73;1.00;;;24.40;87.60;;;;;;5028144;28;20284;-42
2022/07/16 12:36:07;;;;;;;2.33;1.20;;;24.50;87.80;;;;;;5028808;28;20228;-41
2022/07/16 12:39:03;;;;;;;2.42;1.10;;;24.50;87.10;;;;;;5026601;28;20200;-40
2022/07/16 12:41:39;;;;;;;2.47;1.23;;;24.60;87.00;;;;;;5027641;28;20328;-40
2022/07/16 12:44:11;;;;;;;2.28;1.00;;;24.60;87.30;;;;;;5027200;28;20203;-39
2022/07/16 12:46:46;;;;;;;2.30;0.90;;;24.60;87.30;;;;;;5027387;28;20623;-40
2022/07/16 12:49:26;;;;;;;1.23;0.90;;;24.60;87.10;;;;;;5026438;28;20192;-39
2022/07/16 12:52:01;;;;;;;3.47;0.85;;;24.70;87.30;;;;;;5028588;28;20212;-40
2022/07/16 12:58:47;;;;;;;1.77;1.20;;;24.70;87.80;;;;;;5027455;28;20193;-39
2022/07/16 13:00:10;;;;;;;1.80;0.98;;;24.80;87.10;;;;;;5053435;28;20265;-41
2022/07/16 13:02:37;;;;;;;1.77;1.05;;;24.70;86.40;;;;;;5067442;28;20690;-41
2022/07/16 13:05:09;;;;;;;2.20;0.70;;;24.80;86.40;;;;;;5066225;28;20208;-40
2022/07/16 13:07:37;;;;;;;1.80;0.90;;;24.80;87.00;;;;;;5067308;28;20264;-40
2022/07/16 13:10:05;;;;;;;1.95;1.10;;;24.80;87.30;;;;;;5040530;28;20193;-40
2022/07/16 13:12:36;;;;;;;1.80;0.90;;;24.90;86.90;;;;;;5033172;28;20208;-41
2022/07/16 13:15:03;;;;;;;2.20;1.20;;;24.90;87.20;;;;;;5046164;28;20208;-40